Time;durP1;ratioP1;P1;durP2;ratioP2;P2;SDS_P1;SDS_P2;PMS_P1;PMS_P2;Temp;Humidity;BMP_temperature;BMP_pressure;BME280_temperature;BME280_humidity;BME280_pressure;Samples;Min_cycle;Max_cycle;Signal;HPM_P1;HPM_P2
2022/09/07 00:01:16;;;;;;;;;;;;;;;18.94;84.38;100150.72;5017274;28;1875;-81
2022/09/07 00:03:41;;;;;;;;;;;;;;;18.93;83.77;100146.31;5017156;28;1001;-81
2022/09/07 00:06:07;;;;;;;;;;;;;;;18.82;83.62;100151.50;5017536;28;714;-81
2022/09/07 00:08:33;;;;;;;;;;;;;;;18.79;85.10;100160.50;5017340;28;1157;-81
2022/09/07 00:10:59;;;;;;;;;;;;;;;18.83;84.94;100162.25;5017645;28;1189;-81
2022/09/07 00:13:25;;;;;;;;;;;;;;;18.91;84.57;100157.75;5016719;28;1016;-82
2022/09/07 00:15:51;;;;;;;;;;;;;;;18.98;84.31;100157.97;5015772;28;1155;-82
2022/09/07 00:18:16;;;;;;;;;;;;;;;18.95;83.77;100158.69;5017155;28;1071;-82
2022/09/07 00:20:41;;;;;;;;;;;;;;;18.85;85.02;100162.72;5017042;28;1894;-81
2022/09/07 00:23:06;;;;;;;;;;;;;;;18.75;84.73;100159.56;5016669;28;993;-82
2022/09/07 00:25:35;;;;;;;;;;;;;;;18.78;83.86;100165.25;5016592;28;815;-82
2022/09/07 00:28:01;;;;;;;;;;;;;;;18.74;84.95;100164.31;5017758;28;830;-82
2022/09/07 00:30:26;;;;;;;;;;;;;;;18.75;83.78;100170.66;5016054;28;1205;-82
2022/09/07 00:32:51;;;;;;;;;;;;;;;18.67;84.24;100175.16;5016977;28;788;-82
2022/09/07 00:35:16;;;;;;;;;;;;;;;18.72;85.60;100169.38;5017093;28;986;-82
2022/09/07 00:37:41;;;;;;;;;;;;;;;18.64;84.50;100175.00;5016349;28;776;-82
2022/09/07 00:40:07;;;;;;;;;;;;;;;18.52;84.96;100168.25;5018032;28;1278;-82
2022/09/07 00:42:32;;;;;;;;;;;;;;;18.60;85.73;100160.22;5016598;28;1949;-83
2022/09/07 00:45:04;;;;;;;;;;;;;;;18.63;84.74;100162.31;5016185;28;1005;-83
2022/09/07 00:47:48;;;;;;;;;;;;;;;18.43;86.38;100161.19;5015875;28;848;-83
2022/09/07 00:50:17;;;;;;;;;;;;;;;18.60;85.75;100158.28;5015713;28;1165;-83
2022/09/07 00:52:45;;;;;;;;;;;;;;;18.67;86.03;100157.69;5019237;28;915;-83
2022/09/07 00:55:12;;;;;;;;;;;;;;;18.73;85.26;100159.09;5017485;28;1441;-83
2022/09/07 00:57:39;;;;;;;;;;;;;;;18.69;86.21;100160.94;5018905;28;997;-83
2022/09/07 01:00:05;;;;;;;;;;;;;;;18.66;85.48;100156.88;5017461;28;1170;-83
2022/09/07 01:02:30;;;;;;;;;;;;;;;18.66;85.57;100158.84;5018739;28;1903;-83
2022/09/07 01:05:00;;;;;;;;;;;;;;;18.67;85.01;100152.97;5019068;28;851;-83
2022/09/07 01:07:25;;;;;;;;;;;;;;;18.65;85.45;100148.91;5019044;28;1009;-83
2022/09/07 01:09:51;;;;;;;;;;;;;;;18.59;86.25;100148.31;5018872;28;1210;-83
2022/09/07 01:12:16;;;;;;;;;;;;;;;18.64;86.44;100145.31;5017311;28;1647;-83
2022/09/07 01:14:45;;;;;;;;;;;;;;;18.63;85.65;100140.94;5019667;28;1051;-83
2022/09/07 01:17:17;;;;;;;;;;;;;;;18.61;86.77;100136.91;5018736;28;819;-83
2022/09/07 01:19:57;;;;;;;;;;;;;;;18.60;86.20;100138.06;5020016;28;1267;-83
2022/09/07 01:22:41;;;;;;;;;;;;;;;18.60;86.08;100125.00;5017237;28;1953;-83
2022/09/07 01:25:11;;;;;;;;;;;;;;;18.56;86.72;100137.06;5018891;28;811;-83
2022/09/07 01:28:01;;;;;;;;;;;;;;;18.52;86.31;100129.47;5017945;28;996;-83
2022/09/07 01:30:29;;;;;;;;;;;;;;;18.39;87.02;100127.78;5019153;28;1320;-83
2022/09/07 01:33:04;;;;;;;;;;;;;;;18.45;87.96;100123.69;5019467;28;1037;-83
2022/09/07 01:35:42;;;;;;;;;;;;;;;18.48;87.86;100127.69;5020664;28;1067;-82
2022/09/07 01:38:07;;;;;;;;;;;;;;;18.48;87.86;100122.16;5017479;28;1310;-83
2022/09/07 01:40:38;;;;;;;;;;;;;;;18.46;88.48;100119.72;5018656;28;1874;-83
2022/09/07 01:43:09;;;;;;;;;;;;;;;18.47;87.31;100124.13;5019274;28;768;-83
2022/09/07 01:45:36;;;;;;;;;;;;;;;18.49;87.62;100123.78;5020298;28;863;-83
2022/09/07 01:48:04;;;;;;;;;;;;;;;18.48;87.24;100111.06;5018912;28;1037;-83
2022/09/07 01:50:37;;;;;;;;;;;;;;;18.42;87.52;100124.34;5018904;28;1273;-83
2022/09/07 01:53:14;;;;;;;;;;;;;;;18.47;88.35;100117.75;5018345;28;1013;-83
2022/09/07 01:55:45;;;;;;;;;;;;;;;18.46;87.50;100118.91;5018726;28;866;-83
2022/09/07 01:58:29;;;;;;;;;;;;;;;18.43;88.52;100120.44;5018313;28;942;-82
2022/09/07 02:00:58;;;;;;;;;;;;;;;18.36;88.21;100117.41;5018924;28;1894;-83
2022/09/07 02:03:29;;;;;;;;;;;;;;;18.46;88.45;100114.19;5018724;28;836;-83
2022/09/07 02:06:00;;;;;;;;;;;;;;;18.47;87.60;100121.34;5018196;28;1033;-83
2022/09/07 02:08:27;;;;;;;;;;;;;;;18.48;88.84;100120.19;5017274;28;1037;-83
2022/09/07 02:11:00;;;;;;;;;;;;;;;18.44;87.63;100122.06;5018604;28;1320;-83
2022/09/07 02:13:29;;;;;;;;;;;;;;;18.39;88.99;100118.66;5018655;28;851;-82
2022/09/07 02:16:07;;;;;;;;;;;;;;;18.38;88.94;100112.31;5018730;28;839;-83
2022/09/07 02:18:36;;;;;;;;;;;;;;;18.42;88.09;100106.91;5017480;28;1299;-83
2022/09/07 02:21:02;;;;;;;;;;;;;;;18.42;88.34;100113.25;5018539;28;1902;-83
2022/09/07 02:23:29;;;;;;;;;;;;;;;18.31;89.67;100167.47;5018470;28;965;-83
2022/09/07 02:25:59;;;;;;;;;;;;;;;18.12;91.03;100220.59;5018716;28;902;-83
2022/09/07 02:28:27;;;;;;;;;;;;;;;18.71;90.87;100209.38;5018807;28;1343;-82
2022/09/07 02:30:52;;;;;;;;;;;;;;;18.97;89.75;100186.88;5018165;28;1170;-83
2022/09/07 02:33:17;;;;;;;;;;;;;;;19.06;88.45;100192.31;5019749;28;1040;-83
2022/09/07 02:35:42;;;;;;;;;;;;;;;19.12;88.27;100200.09;5019084;28;875;-83
2022/09/07 02:38:07;;;;;;;;;;;;;;;19.25;87.33;100200.91;5017970;28;1013;-82
2022/09/07 02:40:33;;;;;;;;;;;;;;;19.24;87.56;100204.81;5016697;28;1898;-83
2022/09/07 02:42:59;;;;;;;;;;;;;;;19.21;87.45;100208.31;5017709;28;989;-83
2022/09/07 02:45:27;;;;;;;;;;;;;;;19.25;85.27;100201.72;5016861;28;1114;-83
2022/09/07 02:48:08;;;;;;;;;;;;;;;19.24;85.23;100194.53;5018046;28;1017;-83
2022/09/07 02:50:36;;;;;;;;;;;;;;;19.24;84.04;100200.09;5018359;28;1198;-83
2022/09/07 02:53:21;;;;;;;;;;;;;;;19.32;81.72;100195.56;5018097;28;902;-83
2022/09/07 02:56:05;;;;;;;;;;;;;;;19.35;81.81;100210.75;5018570;28;838;-82
2022/09/07 02:58:45;;;;;;;;;;;;;;;19.56;77.17;100215.03;5017919;28;1409;-81
2022/09/07 03:01:20;;;;;;;;;;;;;;;19.60;76.81;100217.94;5018388;28;1967;-82
2022/09/07 03:03:51;;;;;;;;;;;;;;;19.56;75.72;100228.13;5018457;28;1036;-83
2022/09/07 03:06:29;;;;;;;;;;;;;;;19.59;76.82;100242.13;5018017;28;875;-82
2022/09/07 03:08:57;;;;;;;;;;;;;;;19.51;76.68;100237.50;5018190;28;831;-82
2022/09/07 03:11:23;;;;;;;;;;;;;;;19.49;77.36;100252.88;5016980;28;1300;-81
2022/09/07 03:13:48;;;;;;;;;;;;;;;19.51;76.04;100243.03;5020927;28;1012;-81
2022/09/07 03:16:13;;;;;;;;;;;;;;;19.52;75.92;100247.44;5017778;28;1005;-82
2022/09/07 03:18:39;;;;;;;;;;;;;;;19.52;76.22;100230.78;5016828;28;890;-82
2022/09/07 03:21:04;;;;;;;;;;;;;;;19.48;76.80;100223.50;5016452;28;1953;-81
2022/09/07 03:23:29;;;;;;;;;;;;;;;19.43;76.94;100216.19;5016555;28;1114;-82
2022/09/07 03:25:54;;;;;;;;;;;;;;;19.43;76.90;100215.38;5016685;28;743;-82
2022/09/07 03:28:19;;;;;;;;;;;;;;;19.37;79.12;100230.63;5017098;28;1197;-82
2022/09/07 03:30:46;;;;;;;;;;;;;;;19.30;80.47;100242.31;5018128;28;1365;-81
2022/09/07 03:33:14;;;;;;;;;;;;;;;19.16;80.91;100239.84;5017964;28;1197;-82
2022/09/07 03:35:39;;;;;;;;;;;;;;;19.10;82.76;100224.59;5018432;28;1158;-81
2022/09/07 03:38:05;;;;;;;;;;;;;;;19.07;82.96;100224.44;5018429;28;1025;-81
2022/09/07 03:40:30;;;;;;;;;;;;;;;19.04;83.61;100219.63;5017339;28;1898;-82
2022/09/07 03:42:55;;;;;;;;;;;;;;;19.02;85.00;100231.03;5017550;28;1061;-82
2022/09/07 03:45:20;;;;;;;;;;;;;;;19.01;84.37;100239.72;5017524;28;1194;-82
2022/09/07 03:47:45;;;;;;;;;;;;;;;19.01;85.98;100242.47;5017755;28;1154;-82
2022/09/07 03:50:10;;;;;;;;;;;;;;;18.98;86.41;100252.28;5031439;23;2143;-85
2022/09/07 03:52:36;;;;;;;;;;;;;;;18.89;87.03;100263.47;5007317;28;997;-85
2022/09/07 03:55:02;;;;;;;;;;;;;;;18.76;89.02;100263.78;5012574;28;1207;-85
2022/09/07 03:57:27;;;;;;;;;;;;;;;18.42;89.64;100218.56;5019758;28;1247;-85
2022/09/07 03:59:52;;;;;;;;;;;;;;;18.67;89.99;100257.50;5016638;28;1375;-85
2022/09/07 04:02:17;;;;;;;;;;;;;;;18.68;90.50;100248.84;5018567;28;1981;-85
2022/09/07 04:04:44;;;;;;;;;;;;;;;18.66;89.51;100242.03;5015043;28;1180;-86
2022/09/07 04:07:09;;;;;;;;;;;;;;;18.51;92.09;100241.47;5030529;28;1330;-85
2022/09/07 04:09:35;;;;;;;;;;;;;;;18.49;91.78;100234.66;5032323;28;816;-85
2022/09/07 04:12:00;;;;;;;;;;;;;;;18.47;92.50;100231.41;5032128;28;1264;-86
2022/09/07 04:14:25;;;;;;;;;;;;;;;18.48;92.66;100221.94;5036887;28;985;-86
2022/09/07 04:16:50;;;;;;;;;;;;;;;18.48;92.13;100233.03;5046832;28;1020;-87
2022/09/07 04:19:16;;;;;;;;;;;;;;;18.46;93.57;100216.72;5038235;28;989;-87
2022/09/07 04:21:43;;;;;;;;;;;;;;;18.31;95.25;100197.16;5053897;28;1866;-85
2022/09/07 04:24:08;;;;;;;;;;;;;;;18.37;94.42;100182.75;5051969;28;846;-85
2022/09/07 04:26:34;;;;;;;;;;;;;;;18.40;93.69;100165.44;5054303;28;1250;-85
2022/09/07 04:29:02;;;;;;;;;;;;;;;18.37;94.68;100157.00;5055807;28;1368;-85
2022/09/07 04:31:28;;;;;;;;;;;;;;;18.37;94.00;100159.78;5040848;28;1254;-86
2022/09/07 04:33:53;;;;;;;;;;;;;;;18.35;95.14;100149.03;5036273;28;1381;-85
2022/09/07 04:36:19;;;;;;;;;;;;;;;18.39;94.10;100158.28;5037351;28;1004;-88
2022/09/07 04:38:44;;;;;;;;;;;;;;;18.39;94.39;100163.81;5036510;28;1326;-86
2022/09/07 04:41:11;;;;;;;;;;;;;;;18.31;95.64;100145.31;5036956;28;1878;-86
2022/09/07 04:43:38;;;;;;;;;;;;;;;18.29;95.69;100142.06;5040315;28;1314;-87
2022/09/07 04:46:03;;;;;;;;;;;;;;;18.33;95.98;100131.94;5051979;28;862;-85
2022/09/07 04:48:28;;;;;;;;;;;;;;;18.34;95.58;100128.00;5057560;28;1033;-85
2022/09/07 04:50:53;;;;;;;;;;;;;;;18.35;95.13;100120.50;5059642;28;1177;-86
2022/09/07 04:53:18;;;;;;;;;;;;;;;18.28;94.57;100114.72;5042493;28;1004;-85
2022/09/07 04:55:44;;;;;;;;;;;;;;;18.22;96.32;100114.09;5035433;28;1060;-85
2022/09/07 04:58:09;;;;;;;;;;;;;;;18.09;97.03;100102.19;5035569;28;1163;-86
2022/09/07 05:00:35;;;;;;;;;;;;;;;18.19;97.25;100120.34;5035192;28;1910;-86
2022/09/07 05:03:00;;;;;;;;;;;;;;;18.22;95.62;100107.75;5036564;28;854;-86
2022/09/07 05:05:25;;;;;;;;;;;;;;;18.06;96.88;100086.25;5034948;28;1033;-85
2022/09/07 05:07:50;;;;;;;;;;;;;;;18.17;96.87;100072.78;5036066;28;949;-87
2022/09/07 05:10:15;;;;;;;;;;;;;;;18.22;96.23;100094.72;5034907;28;1213;-86
2022/09/07 05:12:40;;;;;;;;;;;;;;;18.19;96.27;100087.09;5035113;28;908;-86
2022/09/07 05:15:06;;;;;;;;;;;;;;;18.15;97.64;100075.88;5035143;28;1033;-85
2022/09/07 05:17:31;;;;;;;;;;;;;;;18.24;96.98;100077.75;5035793;28;1079;-86
2022/09/07 05:19:56;;;;;;;;;;;;;;;18.25;96.60;100076.59;5034916;28;1209;-86
2022/09/07 05:22:21;;;;;;;;;;;;;;;18.22;95.86;100089.19;5034736;28;1901;-87
2022/09/07 05:24:47;;;;;;;;;;;;;;;18.22;96.00;100074.50;5035070;28;1385;-86
2022/09/07 05:27:12;;;;;;;;;;;;;;;18.27;96.46;100082.63;5034487;28;1200;-86
2022/09/07 05:29:37;;;;;;;;;;;;;;;18.29;95.67;100078.34;5034609;28;1061;-86
2022/09/07 05:32:02;;;;;;;;;;;;;;;18.29;95.46;100080.34;5034661;28;1142;-86
2022/09/07 05:34:27;;;;;;;;;;;;;;;18.25;95.60;100079.38;5034557;28;1261;-86
2022/09/07 05:36:52;;;;;;;;;;;;;;;18.24;96.66;100089.66;5034921;28;1016;-85
2022/09/07 05:39:19;;;;;;;;;;;;;;;18.23;95.99;100095.53;5034372;28;754;-86
2022/09/07 05:41:45;;;;;;;;;;;;;;;18.20;96.72;100099.00;5035963;28;1890;-86
2022/09/07 05:44:10;;;;;;;;;;;;;;;18.20;96.79;100105.34;5034339;28;1047;-86
2022/09/07 05:46:35;;;;;;;;;;;;;;;18.26;97.31;100108.72;5033902;28;933;-86
2022/09/07 05:49:02;;;;;;;;;;;;;;;18.28;96.64;100107.22;5034368;28;910;-86
2022/09/07 05:51:27;;;;;;;;;;;;;;;18.30;97.32;100110.44;5033935;28;1389;-89
2022/09/07 05:53:52;;;;;;;;;;;;;;;18.30;97.33;100104.09;5034216;28;1362;-86
2022/09/07 05:56:17;;;;;;;;;;;;;;;18.31;96.63;100108.47;5035157;28;814;-87
2022/09/07 05:58:46;;;;;;;;;;;;;;;18.32;95.95;100101.78;5035268;28;866;-86
2022/09/07 06:01:12;;;;;;;;;;;;;;;18.34;96.32;100114.16;5033957;28;1898;-86
2022/09/07 06:03:38;;;;;;;;;;;;;;;18.32;96.64;100126.72;5033981;28;1268;-88
2022/09/07 06:06:08;;;;;;;;;;;;;;;18.24;97.42;100127.63;5033780;28;1222;-88
2022/09/07 06:08:34;;;;;;;;;;;;;;;18.29;97.48;100119.91;5035193;28;1031;-86
2022/09/07 06:11:03;;;;;;;;;;;;;;;18.38;98.49;100131.72;5036740;28;1290;-86
2022/09/07 06:13:29;;;;;;;;;;;;;;;18.44;97.00;100130.38;5034147;28;1246;-86
2022/09/07 06:15:58;;;;;;;;;;;;;;;18.51;96.91;100127.84;5033579;28;984;-86
2022/09/07 06:18:23;;;;;;;;;;;;;;;18.55;96.80;100136.25;5033579;28;1338;-87
2022/09/07 06:20:48;;;;;;;;;;;;;;;18.58;97.39;100132.84;5033753;28;1959;-87
2022/09/07 06:23:13;;;;;;;;;;;;;;;18.64;97.67;100136.19;5035023;28;1013;-87
2022/09/07 06:25:46;;;;;;;;;;;;;;;18.66;97.49;100140.25;5033789;28;1129;-87
2022/09/07 06:28:11;;;;;;;;;;;;;;;18.62;98.04;100136.56;5034010;28;1316;-86
2022/09/07 06:30:36;;;;;;;;;;;;;;;18.63;97.94;100146.47;5045832;28;1146;-86
2022/09/07 06:33:01;;;;;;;;;;;;;;;18.66;98.34;100140.25;5058164;28;1183;-86
2022/09/07 06:35:26;;;;;;;;;;;;;;;18.60;98.63;100141.63;5058393;28;1121;-86
2022/09/07 06:37:52;;;;;;;;;;;;;;;18.62;97.98;100149.63;5042160;28;1115;-87
2022/09/07 06:40:17;;;;;;;;;;;;;;;18.64;97.04;100147.28;5033146;28;1201;-87
2022/09/07 06:42:42;;;;;;;;;;;;;;;18.65;95.10;100146.94;5034349;28;2032;-87
2022/09/07 06:45:09;;;;;;;;;;;;;;;18.64;96.55;100152.84;5033221;28;1337;-87
2022/09/07 06:47:35;;;;;;;;;;;;;;;18.65;96.80;100154.47;5032866;28;1219;-87
2022/09/07 06:50:00;;;;;;;;;;;;;;;18.66;96.98;100158.84;5033362;28;1276;-86
2022/09/07 06:52:26;;;;;;;;;;;;;;;18.62;97.07;100158.75;5032922;28;1168;-86
2022/09/07 06:54:52;;;;;;;;;;;;;;;18.61;97.80;100164.63;5032802;28;1052;-87
2022/09/07 06:57:17;;;;;;;;;;;;;;;18.64;97.48;100163.91;5034020;28;961;-86
2022/09/07 06:59:42;;;;;;;;;;;;;;;18.64;98.70;100169.47;5032821;28;977;-87
2022/09/07 07:02:10;;;;;;;;;;;;;;;18.65;97.52;100168.31;5032606;28;1976;-87
2022/09/07 07:04:35;;;;;;;;;;;;;;;18.66;98.34;100167.97;5032644;28;1167;-87
2022/09/07 07:07:00;;;;;;;;;;;;;;;18.70;98.40;100163.38;5032358;28;1297;-87
2022/09/07 07:09:25;;;;;;;;;;;;;;;18.74;97.68;100169.03;5032667;28;1372;-87
2022/09/07 07:11:50;;;;;;;;;;;;;;;18.78;97.16;100162.47;5032613;28;1276;-87
2022/09/07 07:14:16;;;;;;;;;;;;;;;18.86;95.37;100161.56;5033784;28;1080;-87
2022/09/07 07:16:41;;;;;;;;;;;;;;;18.91;95.44;100166.06;5032213;28;1500;-88
2022/09/07 07:19:07;;;;;;;;;;;;;;;18.90;95.01;100170.00;5032717;28;1230;-87
2022/09/07 07:21:32;;;;;;;;;;;;;;;18.87;95.20;100165.97;5032448;28;1899;-87
2022/09/07 07:23:57;;;;;;;;;;;;;;;18.87;94.89;100163.19;5033589;28;985;-87
2022/09/07 07:26:25;;;;;;;;;;;;;;;18.88;95.36;100164.78;5032152;28;958;-87
2022/09/07 07:28:51;;;;;;;;;;;;;;;18.88;94.95;100172.31;5032172;28;1194;-87
2022/09/07 07:31:17;;;;;;;;;;;;;;;18.89;94.63;100168.38;5033539;28;1299;-87
2022/09/07 07:33:42;;;;;;;;;;;;;;;18.89;95.93;100165.59;5032447;28;1207;-87
2022/09/07 07:36:10;;;;;;;;;;;;;;;18.86;95.22;100175.44;5033839;28;823;-87
2022/09/07 07:38:35;;;;;;;;;;;;;;;18.88;94.39;100169.53;5033362;28;873;-86
2022/09/07 07:41:00;;;;;;;;;;;;;;;18.93;92.93;100168.50;5032129;28;1910;-87
2022/09/07 07:43:25;;;;;;;;;;;;;;;18.99;92.79;100175.44;5033455;28;1009;-86
2022/09/07 07:45:50;;;;;;;;;;;;;;;19.01;92.81;100168.41;5032890;28;1116;-87
2022/09/07 07:48:16;;;;;;;;;;;;;;;19.07;93.06;100175.34;5032134;28;750;-86
2022/09/07 07:50:41;;;;;;;;;;;;;;;19.12;93.96;100179.84;5031796;28;1224;-87
2022/09/07 07:53:06;;;;;;;;;;;;;;;19.18;94.57;100179.28;5031978;28;1055;-86
2022/09/07 07:55:31;;;;;;;;;;;;;;;19.25;95.43;100175.94;5032239;28;735;-86
2022/09/07 07:57:56;;;;;;;;;;;;;;;19.30;94.07;100172.13;5031785;28;1333;-87
2022/09/07 08:00:21;;;;;;;;;;;;;;;19.31;93.42;100173.75;5034789;28;1304;-86
2022/09/07 08:02:47;;;;;;;;;;;;;;;19.33;92.83;100176.97;5035987;28;1964;-87
2022/09/07 08:05:12;;;;;;;;;;;;;;;19.32;93.77;100175.34;5037885;28;882;-86
2022/09/07 08:07:37;;;;;;;;;;;;;;;19.28;92.61;100175.25;5035597;28;1282;-87
2022/09/07 08:10:03;;;;;;;;;;;;;;;19.33;91.05;100175.00;5035919;28;1329;-87
2022/09/07 08:12:30;;;;;;;;;;;;;;;19.35;89.75;100180.22;5035864;28;1294;-87
2022/09/07 08:14:55;;;;;;;;;;;;;;;19.33;89.10;100176.97;5035873;28;1359;-86
2022/09/07 08:17:20;;;;;;;;;;;;;;;19.38;89.79;100179.53;5036853;28;925;-87
2022/09/07 08:19:46;;;;;;;;;;;;;;;19.42;90.25;100184.03;5035852;28;1045;-86
2022/09/07 08:22:11;;;;;;;;;;;;;;;19.41;90.12;100176.03;5035600;28;1894;-86
2022/09/07 08:24:36;;;;;;;;;;;;;;;19.45;90.72;100186.13;5035684;28;1310;-86
2022/09/07 08:27:02;;;;;;;;;;;;;;;19.48;90.31;100190.19;5035470;28;1271;-87
2022/09/07 08:29:27;;;;;;;;;;;;;;;19.50;89.67;100187.88;5035670;28;1189;-87
2022/09/07 08:31:53;;;;;;;;;;;;;;;19.54;88.76;100188.81;5035430;28;1308;-88
2022/09/07 08:34:18;;;;;;;;;;;;;;;19.55;88.50;100188.47;5035649;28;1278;-86
2022/09/07 08:36:43;;;;;;;;;;;;;;;19.60;88.46;100184.63;5035212;28;1174;-87
2022/09/07 08:39:08;;;;;;;;;;;;;;;19.61;89.61;100181.50;5035392;28;1179;-87
2022/09/07 08:41:52;;;;;;;;;;;;;;;19.65;89.75;100187.16;5035244;28;1953;-86
2022/09/07 08:44:23;;;;;;;;;;;;;;;19.69;89.91;100192.81;5035467;28;1246;-87
2022/09/07 08:46:55;;;;;;;;;;;;;;;19.72;90.30;100195.72;5036347;28;1005;-87
2022/09/07 08:49:26;;;;;;;;;;;;;;;19.76;89.74;100195.81;5035185;28;1305;-87
2022/09/07 08:51:51;;;;;;;;;;;;;;;19.79;90.17;100192.34;5035103;28;1334;-87
2022/09/07 08:54:16;;;;;;;;;;;;;;;19.82;89.52;100183.34;5035168;28;883;-86
2022/09/07 08:56:44;;;;;;;;;;;;;;;19.86;88.94;100182.28;5034829;28;1434;-87
2022/09/07 08:59:16;;;;;;;;;;;;;;;19.91;88.18;100193.13;5035082;28;1298;-87
2022/09/07 09:01:42;;;;;;;;;;;;;;;19.96;88.64;100192.09;5034827;28;2013;-87
2022/09/07 09:04:13;;;;;;;;;;;;;;;20.03;88.40;100181.19;5036238;28;791;-87
2022/09/07 09:06:47;;;;;;;;;;;;;;;20.01;88.29;100187.09;5035946;28;826;-87
2022/09/07 09:09:15;;;;;;;;;;;;;;;20.04;87.93;100180.03;5034957;28;1110;-87
2022/09/07 09:11:44;;;;;;;;;;;;;;;20.05;86.88;100176.09;5033922;28;1350;-87
2022/09/07 09:14:14;;;;;;;;;;;;;;;20.10;87.59;100180.59;5035909;28;870;-87
2022/09/07 09:16:39;;;;;;;;;;;;;;;20.17;87.66;100183.56;5035805;28;989;-87
2022/09/07 09:19:05;;;;;;;;;;;;;;;20.20;88.13;100185.66;5036090;28;1044;-87
2022/09/07 09:21:30;;;;;;;;;;;;;;;20.22;87.62;100188.91;5040543;28;1889;-86
2022/09/07 09:23:59;;;;;;;;;;;;;;;20.24;87.37;100189.38;5038675;28;1179;-87
2022/09/07 09:26:26;;;;;;;;;;;;;;;20.32;87.55;100188.41;5034475;28;1376;-87
2022/09/07 09:28:51;;;;;;;;;;;;;;;20.41;87.74;100185.50;5034437;28;1420;-86
2022/09/07 09:31:18;;;;;;;;;;;;;;;20.42;87.56;100190.69;5034553;28;1313;-88
2022/09/07 09:33:43;;;;;;;;;;;;;;;20.43;86.90;100188.72;5034487;28;1218;-88
2022/09/07 09:36:22;;;;;;;;;;;;;;;20.44;86.78;100190.34;5035518;28;850;-87
2022/09/07 09:38:47;;;;;;;;;;;;;;;20.52;87.16;100192.16;5022917;28;2020;-87
2022/09/07 09:41:13;;;;;;;;;;;;;;;20.53;86.74;100197.38;4995915;28;1969;-87
2022/09/07 09:43:53;;;;;;;;;;;;;;;20.55;86.14;100192.25;5003039;28;1180;-87
2022/09/07 09:46:21;;;;;;;;;;;;;;;20.63;86.24;100194.06;5010926;28;1296;-87
2022/09/07 09:48:58;;;;;;;;;;;;;;;20.67;85.88;100177.50;5011309;28;1318;-87
2022/09/07 09:51:24;;;;;;;;;;;;;;;20.70;86.02;100180.38;4996008;28;1217;-87
2022/09/07 09:53:52;;;;;;;;;;;;;;;20.72;86.87;100180.81;4995990;28;1044;-87
2022/09/07 09:56:17;;;;;;;;;;;;;;;20.81;86.34;100179.84;5010825;28;1255;-86
2022/09/07 09:58:45;;;;;;;;;;;;;;;20.82;85.33;100175.91;5010947;28;1066;-87
2022/09/07 10:01:20;;;;;;;;;;;;;;;20.89;84.72;100167.75;4994564;28;1972;-87
2022/09/07 10:03:45;;;;;;;;;;;;;;;20.99;85.58;100167.22;5010915;28;1237;-87
2022/09/07 10:06:14;;;;;;;;;;;;;;;21.06;85.01;100168.19;5010612;28;1108;-87
2022/09/07 10:08:50;;;;;;;;;;;;;;;21.18;84.24;100158.97;4994434;28;1199;-87
2022/09/07 10:11:15;;;;;;;;;;;;;;;21.20;83.07;100156.63;5010946;28;1284;-86
2022/09/07 10:13:43;;;;;;;;;;;;;;;21.27;83.72;100153.22;5011217;28;1405;-87
2022/09/07 10:16:10;;;;;;;;;;;;;;;21.43;81.96;100156.81;5010819;28;1211;-87
2022/09/07 10:18:37;;;;;;;;;;;;;;;21.56;80.98;100151.91;4994493;28;1354;-87
2022/09/07 10:21:23;;;;;;;;;;;;;;;21.67;80.81;100156.59;5010397;28;1963;-87
2022/09/07 10:23:51;;;;;;;;;;;;;;;21.99;79.01;100154.53;4995528;28;989;-86
2022/09/07 10:26:36;;;;;;;;;;;;;;;22.15;77.67;100160.03;5010735;28;1321;-87
2022/09/07 10:29:14;;;;;;;;;;;;;;;22.18;78.18;100154.53;4995957;28;910;-87
2022/09/07 10:31:47;;;;;;;;;;;;;;;22.03;78.34;100152.59;4994524;28;1363;-87
2022/09/07 10:34:24;;;;;;;;;;;;;;;21.86;78.07;100158.59;4996816;28;993;-88
2022/09/07 10:36:57;;;;;;;;;;;;;;;21.70;78.57;100153.03;4994170;28;1298;-87
2022/09/07 10:39:29;;;;;;;;;;;;;;;21.68;78.37;100154.59;4996825;28;989;-87
2022/09/07 10:41:54;;;;;;;;;;;;;;;21.80;76.65;100149.69;4996154;28;1891;-87
2022/09/07 10:44:25;;;;;;;;;;;;;;;21.92;76.55;100145.19;4997740;28;882;-87
2022/09/07 10:47:02;;;;;;;;;;;;;;;21.87;77.47;100143.47;5013093;28;1211;-87
2022/09/07 10:49:41;;;;;;;;;;;;;;;21.86;77.84;100148.22;5005963;28;1183;-87
2022/09/07 10:52:25;;;;;;;;;;;;;;;21.96;78.59;100144.06;5035483;28;1240;-86
2022/09/07 10:55:14;;;;;;;;;;;;;;;22.27;76.45;100143.97;5019039;28;1212;-87
2022/09/07 10:57:45;;;;;;;;;;;;;;;22.31;73.24;100137.63;5021787;28;1194;-87
2022/09/07 11:00:15;;;;;;;;;;;;;;;22.31;74.71;100135.66;4997403;28;1233;-87
2022/09/07 11:02:43;;;;;;;;;;;;;;;22.30;75.38;100124.88;4994479;28;1902;-87
2022/09/07 11:05:17;;;;;;;;;;;;;;;22.26;75.76;100130.41;4993312;28;1199;-87
2022/09/07 11:08:01;;;;;;;;;;;;;;;22.36;75.43;100123.41;4994030;28;1287;-87
2022/09/07 11:10:42;;;;;;;;;;;;;;;22.40;73.63;100119.50;5001193;28;1310;-87
2022/09/07 11:13:09;;;;;;;;;;;;;;;22.57;73.59;100115.44;5001773;28;1217;-86
2022/09/07 11:15:40;;;;;;;;;;;;;;;22.49;73.95;100106.13;5002802;28;1050;-88
2022/09/07 11:18:24;;;;;;;;;;;;;;;22.53;74.22;100103.44;5010261;28;1240;-87
2022/09/07 11:20:54;;;;;;;;;;;;;;;22.71;75.19;100106.53;4993553;28;1890;-87
2022/09/07 11:23:40;;;;;;;;;;;;;;;22.95;73.90;100095.03;5009639;28;1223;-87
2022/09/07 11:26:13;;;;;;;;;;;;;;;22.98;74.00;100094.25;4994033;28;842;-87
2022/09/07 11:28:47;;;;;;;;;;;;;;;23.00;74.87;100095.50;4993231;28;1231;-86
2022/09/07 11:31:16;;;;;;;;;;;;;;;23.06;74.77;100089.59;5009248;28;1292;-87
2022/09/07 11:33:51;;;;;;;;;;;;;;;22.91;74.56;100094.16;4993059;28;1243;-87
2022/09/07 11:36:18;;;;;;;;;;;;;;;22.80;73.67;100088.38;4993471;28;1021;-87
2022/09/07 11:38:47;;;;;;;;;;;;;;;22.73;72.60;100099.38;4994429;28;811;-87
2022/09/07 11:41:19;;;;;;;;;;;;;;;22.71;73.24;100100.97;5008970;28;1889;-87
2022/09/07 11:43:46;;;;;;;;;;;;;;;22.79;73.70;100100.75;5009237;28;1369;-87
2022/09/07 11:46:11;;;;;;;;;;;;;;;22.78;73.66;100096.34;4992483;28;1348;-87
2022/09/07 11:48:50;;;;;;;;;;;;;;;22.74;75.46;100092.66;4992827;28;962;-87
2022/09/07 11:51:25;;;;;;;;;;;;;;;22.77;73.93;100089.13;4993804;28;1307;-87
2022/09/07 11:53:53;;;;;;;;;;;;;;;22.81;73.83;100083.59;4993956;28;883;-87
2022/09/07 11:56:28;;;;;;;;;;;;;;;22.85;74.37;100081.69;4993752;28;858;-87
2022/09/07 11:59:14;;;;;;;;;;;;;;;22.87;73.04;100080.16;5009101;28;1159;-87
2022/09/07 12:01:54;;;;;;;;;;;;;;;22.79;72.03;100078.41;4992550;28;1957;-87
2022/09/07 12:04:38;;;;;;;;;;;;;;;22.77;69.82;100085.53;5009025;28;1224;-87
2022/09/07 12:07:16;;;;;;;;;;;;;;;22.81;71.98;100090.00;4993546;28;965;-87
2022/09/07 12:09:50;;;;;;;;;;;;;;;22.76;71.31;100092.31;4992711;28;1309;-87
2022/09/07 12:12:23;;;;;;;;;;;;;;;22.66;71.79;100088.09;4993751;28;1319;-87
2022/09/07 12:14:49;;;;;;;;;;;;;;;22.66;72.37;100082.53;4993727;28;1069;-87
2022/09/07 12:17:26;;;;;;;;;;;;;;;22.73;71.49;100077.06;4992554;28;1561;-87
2022/09/07 12:20:10;;;;;;;;;;;;;;;22.77;69.03;100069.59;4995150;28;1199;-86
2022/09/07 12:22:36;;;;;;;;;;;;;;;22.83;68.35;100081.25;4996421;28;1952;-87
2022/09/07 12:25:08;;;;;;;;;;;;;;;22.91;70.01;100083.78;4993906;28;830;-87
2022/09/07 12:27:33;;;;;;;;;;;;;;;23.09;71.42;100072.91;5008649;28;1281;-87
2022/09/07 12:30:00;;;;;;;;;;;;;;;23.08;70.01;100067.69;4992361;28;1221;-87
2022/09/07 12:32:41;;;;;;;;;;;;;;;23.15;70.41;100076.19;4992330;28;1253;-87
2022/09/07 12:35:26;;;;;;;;;;;;;;;23.34;70.71;100068.50;4993635;28;811;-87
2022/09/07 12:37:51;;;;;;;;;;;;;;;23.39;70.31;100070.19;5008295;28;1228;-87
2022/09/07 12:40:26;;;;;;;;;;;;;;;23.69;69.43;100068.22;5008499;28;1304;-88
2022/09/07 12:43:11;;;;;;;;;;;;;;;23.68;67.64;100072.22;4992359;28;1939;-87
2022/09/07 12:45:36;;;;;;;;;;;;;;;23.59;69.73;100063.31;5008592;28;1288;-87
2022/09/07 12:48:05;;;;;;;;;;;;;;;23.70;69.34;100064.25;4994597;28;1108;-87
2022/09/07 12:50:35;;;;;;;;;;;;;;;23.72;67.61;100050.72;5012195;28;1278;-87
2022/09/07 12:53:15;;;;;;;;;;;;;;;23.57;68.29;100051.69;5012108;28;1199;-87
2022/09/07 12:55:58;;;;;;;;;;;;;;;23.57;69.69;100053.69;4997350;28;1021;-87
2022/09/07 12:58:27;;;;;;;;;;;;;;;24.05;69.29;100058.31;4995856;28;1185;-87